Terminal Aerodrome Forecast
Issued by NWS

Home | Current Version | Previous Version | Graphics & Text | Print | Product List | Glossary On
Versions: 1 2 3 4 5 6 7 8 9 10 11 12 13 14 15 16 17 18 19
260
FTUS43 KBIS 251726
TAFDIK
TAF
KDIK 251726Z 2518/2618 26025G35KT P6SM SCT250
     FM260100 28019G27KT P6SM BKN070
     FM260300 28012KT P6SM BKN250
     FM261500 29017G25KT P6SM FEW120=

USA.gov is the U.S. government's official web portal to all federal, state and local government web resources and services.